sensor_id;sensor_type;location;lat;lon;timestamp;pressure;altitude;pressure_sealevel;temperature;humidity
75656;BME280;64252;51.094;13.714;2022-11-23T00:01:18;99276.78;;;0.85;94.90
75656;BME280;64252;51.094;13.714;2022-11-23T00:03:45;99280.03;;;0.87;95.84
75656;BME280;64252;51.094;13.714;2022-11-23T00:06:12;99284.69;;;0.83;95.45
75656;BME280;64252;51.094;13.714;2022-11-23T00:08:38;99277.75;;;0.77;95.24
75656;BME280;64252;51.094;13.714;2022-11-23T00:11:03;99268.25;;;0.78;95.83
75656;BME280;64252;51.094;13.714;2022-11-23T00:13:29;99273.19;;;0.85;95.68
75656;BME280;64252;51.094;13.714;2022-11-23T00:15:55;99278.41;;;0.86;95.52
75656;BME280;64252;51.094;13.714;2022-11-23T00:18:21;99283.25;;;0.89;95.23
75656;BME280;64252;51.094;13.714;2022-11-23T00:20:46;99279.78;;;0.93;95.08
75656;BME280;64252;51.094;13.714;2022-11-23T00:23:12;99277.44;;;0.95;96.06
75656;BME280;64252;51.094;13.714;2022-11-23T00:25:37;99273.88;;;0.94;95.64
75656;BME280;64252;51.094;13.714;2022-11-23T00:28:03;99279.72;;;1.05;95.24
75656;BME280;64252;51.094;13.714;2022-11-23T00:30:28;99277.91;;;0.97;95.15
75656;BME280;64252;51.094;13.714;2022-11-23T00:32:55;99277.00;;;0.93;95.42
75656;BME280;64252;51.094;13.714;2022-11-23T00:35:22;99286.31;;;0.84;95.86
75656;BME280;64252;51.094;13.714;2022-11-23T00:37:47;99274.47;;;0.87;96.00
75656;BME280;64252;51.094;13.714;2022-11-23T00:40:13;99273.66;;;0.87;95.84
75656;BME280;64252;51.094;13.714;2022-11-23T00:42:39;99273.91;;;0.82;95.58
75656;BME280;64252;51.094;13.714;2022-11-23T00:45:05;99281.34;;;0.78;95.63
75656;BME280;64252;51.094;13.714;2022-11-23T00:47:31;99278.44;;;0.74;95.99
75656;BME280;64252;51.094;13.714;2022-11-23T00:49:56;99282.72;;;0.72;96.16
75656;BME280;64252;51.094;13.714;2022-11-23T00:52:22;99288.31;;;0.60;96.56
75656;BME280;64252;51.094;13.714;2022-11-23T00:54:47;99289.13;;;0.48;96.27
75656;BME280;64252;51.094;13.714;2022-11-23T00:57:13;99284.28;;;0.45;96.56
75656;BME280;64252;51.094;13.714;2022-11-23T00:59:38;99282.44;;;0.37;97.10
75656;BME280;64252;51.094;13.714;2022-11-23T01:02:04;99283.84;;;0.31;97.33
75656;BME280;64252;51.094;13.714;2022-11-23T01:04:30;99287.75;;;0.30;97.62
75656;BME280;64252;51.094;13.714;2022-11-23T01:06:58;99277.38;;;0.27;98.06
75656;BME280;64252;51.094;13.714;2022-11-23T01:09:24;99284.53;;;0.28;98.32
75656;BME280;64252;51.094;13.714;2022-11-23T01:11:54;99281.28;;;0.26;98.28
75656;BME280;64252;51.094;13.714;2022-11-23T01:14:22;99293.78;;;0.20;98.09
75656;BME280;64252;51.094;13.714;2022-11-23T01:16:48;99277.72;;;0.13;98.37
75656;BME280;64252;51.094;13.714;2022-11-23T01:19:16;99285.22;;;0.13;98.59
75656;BME280;64252;51.094;13.714;2022-11-23T01:21:45;99286.63;;;0.07;98.49
75656;BME280;64252;51.094;13.714;2022-11-23T01:24:14;99289.38;;;0.07;99.29
75656;BME280;64252;51.094;13.714;2022-11-23T01:26:40;99294.72;;;-0.01;99.23
75656;BME280;64252;51.094;13.714;2022-11-23T01:29:06;99290.06;;;-0.09;99.08
75656;BME280;64252;51.094;13.714;2022-11-23T01:31:32;99291.47;;;-0.03;98.91
75656;BME280;64252;51.094;13.714;2022-11-23T01:34:00;99285.91;;;-0.03;99.07
75656;BME280;64252;51.094;13.714;2022-11-23T01:36:29;99284.75;;;-0.14;99.01
75656;BME280;64252;51.094;13.714;2022-11-23T01:38:57;99286.59;;;-0.18;99.50
75656;BME280;64252;51.094;13.714;2022-11-23T01:41:29;99285.56;;;-0.25;99.62
75656;BME280;64252;51.094;13.714;2022-11-23T01:43:55;99281.03;;;-0.30;99.95
75656;BME280;64252;51.094;13.714;2022-11-23T01:46:21;99279.28;;;-0.34;99.83
75656;BME280;64252;51.094;13.714;2022-11-23T01:48:54;99286.09;;;-0.44;99.71
75656;BME280;64252;51.094;13.714;2022-11-23T01:51:25;99285.41;;;-0.41;100.00
75656;BME280;64252;51.094;13.714;2022-11-23T01:53:53;99283.56;;;-0.37;100.00
75656;BME280;64252;51.094;13.714;2022-11-23T01:56:24;99281.03;;;-0.30;100.00
75656;BME280;64252;51.094;13.714;2022-11-23T01:58:52;99285.41;;;-0.41;100.00
75656;BME280;64252;51.094;13.714;2022-11-23T02:01:20;99278.03;;;-0.25;100.00
75656;BME280;64252;51.094;13.714;2022-11-23T02:03:47;99282.63;;;-0.41;100.00
75656;BME280;64252;51.094;13.714;2022-11-23T02:06:16;99288.53;;;-0.42;100.00
75656;BME280;64252;51.094;13.714;2022-11-23T02:08:43;99291.03;;;-0.50;100.00
75656;BME280;64252;51.094;13.714;2022-11-23T02:11:11;99283.63;;;-0.58;100.00
75656;BME280;64252;51.094;13.714;2022-11-23T02:13:37;99280.72;;;-0.61;100.00
75656;BME280;64252;51.094;13.714;2022-11-23T02:16:03;99285.47;;;-0.62;100.00
75656;BME280;64252;51.094;13.714;2022-11-23T02:18:30;99293.78;;;-0.62;100.00
75656;BME280;64252;51.094;13.714;2022-11-23T02:20:58;99287.88;;;-0.60;100.00
75656;BME280;64252;51.094;13.714;2022-11-23T02:23:36;99294.13;;;-0.63;100.00
75656;BME280;64252;51.094;13.714;2022-11-23T02:26:15;99298.31;;;-0.57;100.00
75656;BME280;64252;51.094;13.714;2022-11-23T02:28:48;99299.13;;;-0.57;100.00
75656;BME280;64252;51.094;13.714;2022-11-23T02:31:15;99296.00;;;-0.55;100.00
75656;BME280;64252;51.094;13.714;2022-11-23T02:33:40;99303.03;;;-0.58;100.00
75656;BME280;64252;51.094;13.714;2022-11-23T02:36:35;99299.13;;;-0.57;100.00
75656;BME280;64252;51.094;13.714;2022-11-23T02:39:24;99311.47;;;-0.54;100.00
75656;BME280;64252;51.094;13.714;2022-11-23T02:41:53;99312.63;;;-0.55;100.00
75656;BME280;64252;51.094;13.714;2022-11-23T02:44:24;99305.44;;;-0.56;100.00
75656;BME280;64252;51.094;13.714;2022-11-23T02:46:52;99306.84;;;-0.50;100.00
75656;BME280;64252;51.094;13.714;2022-11-23T02:49:18;99307.34;;;-0.48;100.00
75656;BME280;64252;51.094;13.714;2022-11-23T02:51:43;99308.00;;;-0.51;100.00
75656;BME280;64252;51.094;13.714;2022-11-23T02:54:09;99320.03;;;-0.47;100.00
75656;BME280;64252;51.094;13.714;2022-11-23T02:56:36;99323.97;;;-0.48;100.00
75656;BME280;64252;51.094;13.714;2022-11-23T02:59:02;99312.19;;;-0.45;100.00
75656;BME280;64252;51.094;13.714;2022-11-23T03:01:28;99306.91;;;-0.38;100.00
75656;BME280;64252;51.094;13.714;2022-11-23T03:03:54;99323.78;;;-0.31;100.00
75656;BME280;64252;51.094;13.714;2022-11-23T03:06:19;99321.00;;;-0.31;100.00
75656;BME280;64252;51.094;13.714;2022-11-23T03:08:47;99320.19;;;-0.31;100.00
75656;BME280;64252;51.094;13.714;2022-11-23T03:11:14;99316.81;;;-0.37;100.00
75656;BME280;64252;51.094;13.714;2022-11-23T03:13:39;99319.59;;;-0.37;100.00
75656;BME280;64252;51.094;13.714;2022-11-23T03:16:07;99323.19;;;-0.36;100.00
75656;BME280;64252;51.094;13.714;2022-11-23T03:18:32;99326.06;;;-0.33;100.00
75656;BME280;64252;51.094;13.714;2022-11-23T03:21:02;99330.97;;;-0.30;100.00
75656;BME280;64252;51.094;13.714;2022-11-23T03:23:28;99330.97;;;-0.30;100.00
75656;BME280;64252;51.094;13.714;2022-11-23T03:25:56;99329.13;;;-0.26;100.00
75656;BME280;64252;51.094;13.714;2022-11-23T03:28:24;99329.38;;;-0.07;100.00
75656;BME280;64252;51.094;13.714;2022-11-23T03:30:50;99330.09;;;-0.10;100.00
75656;BME280;64252;51.094;13.714;2022-11-23T03:33:16;99340.09;;;-0.17;100.00
75656;BME280;64252;51.094;13.714;2022-11-23T03:35:43;99332.13;;;-0.19;100.00
75656;BME280;64252;51.094;13.714;2022-11-23T03:38:34;99327.97;;;-0.13;100.00
75656;BME280;64252;51.094;13.714;2022-11-23T03:41:01;99325.91;;;-0.16;100.00
75656;BME280;64252;51.094;13.714;2022-11-23T03:43:38;99328.19;;;-0.18;100.00
75656;BME280;64252;51.094;13.714;2022-11-23T03:46:04;99327.75;;;-0.20;100.00
75656;BME280;64252;51.094;13.714;2022-11-23T03:48:29;99339.28;;;-0.18;100.00
75656;BME280;64252;51.094;13.714;2022-11-23T03:50:55;99334.00;;;-0.11;100.00
75656;BME280;64252;51.094;13.714;2022-11-23T03:53:21;99327.06;;;-0.17;100.00
75656;BME280;64252;51.094;13.714;2022-11-23T03:55:47;99333.75;;;-0.18;100.00
75656;BME280;64252;51.094;13.714;2022-11-23T03:58:13;99330.53;;;-0.20;100.00
75656;BME280;64252;51.094;13.714;2022-11-23T04:00:40;99323.78;;;-0.19;100.00
75656;BME280;64252;51.094;13.714;2022-11-23T04:03:07;99329.28;;;-0.10;100.00
75656;BME280;64252;51.094;13.714;2022-11-23T04:05:51;99330.44;;;0.01;100.00
75656;BME280;64252;51.094;13.714;2022-11-23T04:08:46;99332.16;;;-0.07;100.00
75656;BME280;64252;51.094;13.714;2022-11-23T04:11:19;99322.22;;;-0.08;100.00
75656;BME280;64252;51.094;13.714;2022-11-23T04:13:47;99318.28;;;-0.07;100.00
75656;BME280;64252;51.094;13.714;2022-11-23T04:16:12;99330.53;;;-0.08;100.00
75656;BME280;64252;51.094;13.714;2022-11-23T04:18:39;99319.66;;;-0.13;100.00
75656;BME280;64252;51.094;13.714;2022-11-23T04:21:06;99322.44;;;-0.13;100.00
75656;BME280;64252;51.094;13.714;2022-11-23T04:23:32;99329.13;;;-0.14;100.00
75656;BME280;64252;51.094;13.714;2022-11-23T04:25:58;99335.38;;;-0.17;100.00
75656;BME280;64252;51.094;13.714;2022-11-23T04:28:23;99337.94;;;-0.12;100.00
75656;BME280;64252;51.094;13.714;2022-11-23T04:30:50;99341.41;;;-0.15;100.00
75656;BME280;64252;51.094;13.714;2022-11-23T04:33:16;99334.69;;;-0.14;100.00
75656;BME280;64252;51.094;13.714;2022-11-23T04:35:43;99334.56;;;-0.17;100.00
75656;BME280;64252;51.094;13.714;2022-11-23T04:38:09;99328.69;;;-0.16;100.00
75656;BME280;64252;51.094;13.714;2022-11-23T04:40:35;99334.00;;;-0.11;100.00
75656;BME280;64252;51.094;13.714;2022-11-23T04:43:03;99328.47;;;-0.11;100.00
75656;BME280;64252;51.094;13.714;2022-11-23T04:45:32;99335.63;;;-0.10;100.00
75656;BME280;64252;51.094;13.714;2022-11-23T04:48:02;99329.13;;;-0.14;100.00
75656;BME280;64252;51.094;13.714;2022-11-23T04:50:29;99325.19;;;-0.13;100.00
75656;BME280;64252;51.094;13.714;2022-11-23T04:52:55;99327.75;;;-0.08;100.00
75656;BME280;64252;51.094;13.714;2022-11-23T04:55:27;99336.31;;;-0.13;100.00
75656;BME280;64252;51.094;13.714;2022-11-23T04:57:59;99332.28;;;-0.15;100.00
75656;BME280;64252;51.094;13.714;2022-11-23T05:00:28;99331.44;;;-0.16;100.00
75656;BME280;64252;51.094;13.714;2022-11-23T05:02:58;99327.38;;;-0.18;100.00
75656;BME280;64252;51.094;13.714;2022-11-23T05:05:25;99329.13;;;-0.14;100.00
75656;BME280;64252;51.094;13.714;2022-11-23T05:07:51;99332.13;;;-0.19;100.00
75656;BME280;64252;51.094;13.714;2022-11-23T05:10:19;99333.31;;;-0.20;100.00
75656;BME280;64252;51.094;13.714;2022-11-23T05:12:46;99331.44;;;-0.16;100.00
75656;BME280;64252;51.094;13.714;2022-11-23T05:15:12;99343.91;;;-0.22;100.00
75656;BME280;64252;51.094;13.714;2022-11-23T05:17:43;99326.81;;;-0.24;100.00
75656;BME280;64252;51.094;13.714;2022-11-23T05:20:16;99320.78;;;-0.26;100.00
75656;BME280;64252;51.094;13.714;2022-11-23T05:22:46;99327.75;;;-0.20;100.00
75656;BME280;64252;51.094;13.714;2022-11-23T05:25:16;99331.88;;;-0.26;100.00
75656;BME280;64252;51.094;13.714;2022-11-23T05:27:44;99337.44;;;-0.26;100.00
75656;BME280;64252;51.094;13.714;2022-11-23T05:30:11;99332.91;;;-0.30;100.00
75656;BME280;64252;51.094;13.714;2022-11-23T05:32:36;99339.00;;;-0.37;100.00
75656;BME280;64252;51.094;13.714;2022-11-23T05:35:04;99344.09;;;-0.39;100.00
75656;BME280;64252;51.094;13.714;2022-11-23T05:37:30;99337.88;;;-0.36;100.00
75656;BME280;64252;51.094;13.714;2022-11-23T05:40:00;99344.09;;;-0.39;100.00
75656;BME280;64252;51.094;13.714;2022-11-23T05:42:26;99332.19;;;-0.39;100.00
75656;BME280;64252;51.094;13.714;2022-11-23T05:44:56;99346.41;;;-0.41;100.00
75656;BME280;64252;51.094;13.714;2022-11-23T05:47:28;99352.63;;;-0.44;100.00
75656;BME280;64252;51.094;13.714;2022-11-23T05:49:54;99342.59;;;-0.36;100.00
75656;BME280;64252;51.094;13.714;2022-11-23T05:52:25;99342.06;;;-0.30;100.00
75656;BME280;64252;51.094;13.714;2022-11-23T05:54:50;99344.50;;;-0.28;100.00
75656;BME280;64252;51.094;13.714;2022-11-23T05:57:16;99344.03;;;-0.18;100.00
75656;BME280;64252;51.094;13.714;2022-11-23T05:59:43;99349.84;;;-0.11;100.00
75656;BME280;64252;51.094;13.714;2022-11-23T06:02:15;99341.88;;;-0.01;100.00
75656;BME280;64252;51.094;13.714;2022-11-23T06:04:41;99348.16;;;0.09;100.00
75656;BME280;64252;51.094;13.714;2022-11-23T06:07:11;99351.97;;;0.16;100.00
75656;BME280;64252;51.094;13.714;2022-11-23T06:09:55;99340.25;;;0.11;100.00
75656;BME280;64252;51.094;13.714;2022-11-23T06:12:20;99347.78;;;-0.02;100.00
75656;BME280;64252;51.094;13.714;2022-11-23T06:14:46;99352.28;;;-0.10;100.00
75656;BME280;64252;51.094;13.714;2022-11-23T06:17:15;99351.31;;;-0.14;100.00
75656;BME280;64252;51.094;13.714;2022-11-23T06:19:43;99355.50;;;-0.08;100.00
75656;BME280;64252;51.094;13.714;2022-11-23T06:22:10;99354.47;;;-0.15;100.00
75656;BME280;64252;51.094;13.714;2022-11-23T06:24:43;99360.00;;;-0.15;100.00
75656;BME280;64252;51.094;13.714;2022-11-23T06:28:05;99367.72;;;-0.21;100.00
75656;BME280;64252;51.094;13.714;2022-11-23T06:30:39;99373.97;;;-0.24;100.00
75656;BME280;64252;51.094;13.714;2022-11-23T06:33:06;99367.97;;;-0.14;100.00
75656;BME280;64252;51.094;13.714;2022-11-23T06:35:38;99383.50;;;-0.01;100.00
75656;BME280;64252;51.094;13.714;2022-11-23T06:38:03;99378.91;;;0.04;100.00
75656;BME280;64252;51.094;13.714;2022-11-23T06:40:29;99367.09;;;0.07;100.00
75656;BME280;64252;51.094;13.714;2022-11-23T06:42:59;99373.78;;;0.06;100.00
75656;BME280;64252;51.094;13.714;2022-11-23T06:45:33;99373.94;;;0.09;100.00
75656;BME280;64252;51.094;13.714;2022-11-23T06:48:04;99377.75;;;0.17;100.00
75656;BME280;64252;51.094;13.714;2022-11-23T06:50:32;99370.47;;;0.24;100.00
75656;BME280;64252;51.094;13.714;2022-11-23T06:52:58;99369.91;;;0.19;100.00
75656;BME280;64252;51.094;13.714;2022-11-23T06:55:38;99382.03;;;0.26;100.00
75656;BME280;64252;51.094;13.714;2022-11-23T06:58:05;99377.09;;;0.32;100.00
75656;BME280;64252;51.094;13.714;2022-11-23T07:00:32;99391.19;;;0.39;100.00
75656;BME280;64252;51.094;13.714;2022-11-23T07:03:00;99382.53;;;0.40;100.00
75656;BME280;64252;51.094;13.714;2022-11-23T07:05:28;99376.03;;;0.49;100.00
75656;BME280;64252;51.094;13.714;2022-11-23T07:07:54;99382.19;;;0.54;100.00
75656;BME280;64252;51.094;13.714;2022-11-23T07:10:24;99383.56;;;0.60;100.00
75656;BME280;64252;51.094;13.714;2022-11-23T07:12:54;99385.63;;;0.63;100.00
75656;BME280;64252;51.094;13.714;2022-11-23T07:15:21;99380.91;;;0.64;100.00
75656;BME280;64252;51.094;13.714;2022-11-23T07:17:49;99388.09;;;0.65;100.00
75656;BME280;64252;51.094;13.714;2022-11-23T07:20:17;99391.88;;;0.72;100.00
75656;BME280;64252;51.094;13.714;2022-11-23T07:22:43;99391.41;;;0.82;100.00
75656;BME280;64252;51.094;13.714;2022-11-23T07:25:09;99382.03;;;0.87;99.29
75656;BME280;64252;51.094;13.714;2022-11-23T07:27:36;99389.56;;;0.86;99.09
75656;BME280;64252;51.094;13.714;2022-11-23T07:30:04;99397.44;;;0.84;99.32
75656;BME280;64252;51.094;13.714;2022-11-23T07:32:31;99393.03;;;0.83;98.98
75656;BME280;64252;51.094;13.714;2022-11-23T07:34:57;99393.28;;;0.78;99.07
75656;BME280;64252;51.094;13.714;2022-11-23T07:37:24;99388.41;;;0.75;99.18
75656;BME280;64252;51.094;13.714;2022-11-23T07:39:49;99392.22;;;0.71;99.58
75656;BME280;64252;51.094;13.714;2022-11-23T07:42:18;99392.00;;;0.64;99.79
75656;BME280;64252;51.094;13.714;2022-11-23T07:44:44;99402.53;;;0.58;100.00
75656;BME280;64252;51.094;13.714;2022-11-23T07:47:09;99402.88;;;0.57;100.00
75656;BME280;64252;51.094;13.714;2022-11-23T07:49:35;99403.25;;;0.55;100.00
75656;BME280;64252;51.094;13.714;2022-11-23T07:52:01;99404.97;;;0.60;100.00
75656;BME280;64252;51.094;13.714;2022-11-23T07:54:26;99403.69;;;0.57;100.00
75656;BME280;64252;51.094;13.714;2022-11-23T07:56:52;99409.38;;;0.61;100.00
75656;BME280;64252;51.094;13.714;2022-11-23T07:59:17;99402.66;;;0.62;100.00
75656;BME280;64252;51.094;13.714;2022-11-23T08:01:43;99401.50;;;0.63;100.00
75656;BME280;64252;51.094;13.714;2022-11-23T08:04:08;99403.94;;;0.64;100.00
75656;BME280;64252;51.094;13.714;2022-11-23T08:06:34;99392.81;;;0.64;100.00
75656;BME280;64252;51.094;13.714;2022-11-23T08:08:59;99393.75;;;0.68;100.00
75656;BME280;64252;51.094;13.714;2022-11-23T08:11:25;99406.47;;;0.81;100.00
75656;BME280;64252;51.094;13.714;2022-11-23T08:13:50;99403.69;;;0.81;100.00
75656;BME280;64252;51.094;13.714;2022-11-23T08:16:16;99397.31;;;0.81;100.00
75656;BME280;64252;51.094;13.714;2022-11-23T08:18:42;99398.84;;;0.78;100.00
75656;BME280;64252;51.094;13.714;2022-11-23T08:21:08;99403.59;;;0.78;100.00
75656;BME280;64252;51.094;13.714;2022-11-23T08:23:34;99398.72;;;0.75;100.00
75656;BME280;64252;51.094;13.714;2022-11-23T08:26:02;99399.88;;;0.74;100.00
75656;BME280;64252;51.094;13.714;2022-11-23T08:28:27;99397.00;;;0.70;100.00
75656;BME280;64252;51.094;13.714;2022-11-23T08:30:53;99400.00;;;0.65;100.00
75656;BME280;64252;51.094;13.714;2022-11-23T08:33:19;99388.09;;;0.65;100.00
75656;BME280;64252;51.094;13.714;2022-11-23T08:35:45;99386.56;;;0.67;100.00
75656;BME280;64252;51.094;13.714;2022-11-23T08:38:10;99393.41;;;0.70;100.00
75656;BME280;64252;51.094;13.714;2022-11-23T08:40:37;99389.09;;;0.72;100.00
75656;BME280;64252;51.094;13.714;2022-11-23T08:43:03;99392.69;;;0.73;100.00
75656;BME280;64252;51.094;13.714;2022-11-23T08:45:29;99397.22;;;0.77;100.00
75656;BME280;64252;51.094;13.714;2022-11-23T08:48:01;99400.91;;;0.94;100.00
75656;BME280;64252;51.094;13.714;2022-11-23T08:50:36;99405.72;;;1.09;100.00
75656;BME280;64252;51.094;13.714;2022-11-23T08:53:03;99397.38;;;1.21;99.88
75656;BME280;64252;51.094;13.714;2022-11-23T08:55:28;99405.78;;;1.37;98.58
75656;BME280;64252;51.094;13.714;2022-11-23T08:57:58;99397.84;;;1.51;97.96
75656;BME280;64252;51.094;13.714;2022-11-23T09:00:25;99400.69;;;1.66;97.66
75656;BME280;64252;51.094;13.714;2022-11-23T09:02:51;99408.31;;;1.82;97.42
75656;BME280;64252;51.094;13.714;2022-11-23T09:05:16;99402.78;;;1.97;97.06
75656;BME280;64252;51.094;13.714;2022-11-23T09:07:42;99394.09;;;2.14;95.18
75656;BME280;64252;51.094;13.714;2022-11-23T09:10:07;99402.91;;;2.32;93.32
75656;BME280;64252;51.094;13.714;2022-11-23T09:12:33;99405.34;;;2.49;91.95
75656;BME280;64252;51.094;13.714;2022-11-23T09:14:59;99403.34;;;2.65;91.45
75656;BME280;64252;51.094;13.714;2022-11-23T09:17:25;99406.22;;;2.85;91.26
75656;BME280;64252;51.094;13.714;2022-11-23T09:19:50;99405.81;;;3.02;90.00
75656;BME280;64252;51.094;13.714;2022-11-23T09:22:16;99407.78;;;3.17;89.30
75656;BME280;64252;51.094;13.714;2022-11-23T09:24:41;99408.84;;;3.28;88.64
75656;BME280;64252;51.094;13.714;2022-11-23T09:27:07;99413.03;;;3.38;88.18
75656;BME280;64252;51.094;13.714;2022-11-23T09:29:33;99408.06;;;3.47;87.65
75656;BME280;64252;51.094;13.714;2022-11-23T09:32:01;99399.75;;;3.50;87.35
75656;BME280;64252;51.094;13.714;2022-11-23T09:34:26;99399.09;;;3.57;87.40
75656;BME280;64252;51.094;13.714;2022-11-23T09:36:55;99398.94;;;3.69;88.83
75656;BME280;64252;51.094;13.714;2022-11-23T09:39:21;99394.31;;;3.77;87.29
75656;BME280;64252;51.094;13.714;2022-11-23T09:42:38;99390.19;;;3.90;85.76
75656;BME280;64252;51.094;13.714;2022-11-23T09:45:25;99386.06;;;4.03;85.54
75656;BME280;64252;51.094;13.714;2022-11-23T09:53:16;99386.22;;;4.33;85.15
75656;BME280;64252;51.094;13.714;2022-11-23T09:55:46;99373.84;;;4.57;83.87
75656;BME280;64252;51.094;13.714;2022-11-23T09:58:15;99387.63;;;4.69;83.21
75656;BME280;64252;51.094;13.714;2022-11-23T10:00:52;99386.78;;;4.91;81.95
75656;BME280;64252;51.094;13.714;2022-11-23T10:03:21;99383.56;;;5.15;82.54
75656;BME280;64252;51.094;13.714;2022-11-23T10:05:56;99379.88;;;5.38;82.49
75656;BME280;64252;51.094;13.714;2022-11-23T10:08:42;99381.34;;;5.58;81.09
75656;BME280;64252;51.094;13.714;2022-11-23T10:11:34;99385.78;;;5.59;81.68
75656;BME280;64252;51.094;13.714;2022-11-23T10:19:50;99369.91;;;6.03;79.11
75656;BME280;64252;51.094;13.714;2022-11-23T10:24:52;99357.91;;;6.40;78.16
75656;BME280;64252;51.094;13.714;2022-11-23T10:27:23;99353.94;;;6.48;77.62
75656;BME280;64252;51.094;13.714;2022-11-23T10:29:50;99358.06;;;6.61;77.53
75656;BME280;64252;51.094;13.714;2022-11-23T10:32:28;99356.16;;;6.72;77.13
75656;BME280;64252;51.094;13.714;2022-11-23T10:37:47;99357.28;;;6.64;76.26
75656;BME280;64252;51.094;13.714;2022-11-23T10:40:16;99357.28;;;6.64;75.66
75656;BME280;64252;51.094;13.714;2022-11-23T10:42:56;99349.78;;;6.75;75.12
75656;BME280;64252;51.094;13.714;2022-11-23T10:45:26;99348.25;;;6.88;75.71
75656;BME280;64252;51.094;13.714;2022-11-23T10:47:54;99344.44;;;7.11;75.34
75656;BME280;64252;51.094;13.714;2022-11-23T10:50:24;99341.66;;;7.18;75.06
75656;BME280;64252;51.094;13.714;2022-11-23T10:53:39;99341.66;;;7.18;74.72
75656;BME280;64252;51.094;13.714;2022-11-23T10:55:49;99339.19;;;7.09;74.46
75656;BME280;64252;51.094;13.714;2022-11-23T10:58:31;99340.75;;;7.06;74.33
75656;BME280;64252;51.094;13.714;2022-11-23T11:01:01;99344.72;;;6.95;75.07
75656;BME280;64252;51.094;13.714;2022-11-23T11:03:30;99343.00;;;6.83;75.74
75656;BME280;64252;51.094;13.714;2022-11-23T11:05:57;99337.66;;;6.64;76.98
75656;BME280;64252;51.094;13.714;2022-11-23T11:08:29;99342.22;;;6.35;76.03
75656;BME280;64252;51.094;13.714;2022-11-23T11:13:31;99335.63;;;6.17;76.91
75656;BME280;64252;51.094;13.714;2022-11-23T11:15:59;99345.53;;;6.07;78.15
75656;BME280;64252;51.094;13.714;2022-11-23T11:18:31;99334.72;;;6.06;77.91
75656;BME280;64252;51.094;13.714;2022-11-23T11:21:06;99332.31;;;6.04;79.27
75656;BME280;64252;51.094;13.714;2022-11-23T11:23:33;99338.25;;;5.99;78.73
75656;BME280;64252;51.094;13.714;2022-11-23T11:26:18;99326.53;;;5.90;79.75
75656;BME280;64252;51.094;13.714;2022-11-23T11:28:48;99330.78;;;5.77;80.42
75656;BME280;64252;51.094;13.714;2022-11-23T11:37:04;99326.72;;;5.74;79.67
75656;BME280;64252;51.094;13.714;2022-11-23T11:39:43;99326.16;;;5.88;79.44
75656;BME280;64252;51.094;13.714;2022-11-23T11:42:20;99320.69;;;6.02;79.03
75656;BME280;64252;51.094;13.714;2022-11-23T11:44:50;99323.97;;;6.11;78.51
75656;BME280;64252;51.094;13.714;2022-11-23T11:47:30;99322.50;;;6.25;78.82
75656;BME280;64252;51.094;13.714;2022-11-23T11:50:01;99317.34;;;6.30;78.38
75656;BME280;64252;51.094;13.714;2022-11-23T11:52:33;99315.44;;;6.41;77.62
75656;BME280;64252;51.094;13.714;2022-11-23T11:55:11;99328.34;;;6.53;77.68
75656;BME280;64252;51.094;13.714;2022-11-23T11:58:04;99316.44;;;6.67;76.45
75656;BME280;64252;51.094;13.714;2022-11-23T12:00:36;99314.91;;;6.73;76.17
75656;BME280;64252;51.094;13.714;2022-11-23T12:03:36;99316.13;;;6.79;75.90
75656;BME280;64252;51.094;13.714;2022-11-23T12:06:14;99315.81;;;6.87;75.83
75656;BME280;64252;51.094;13.714;2022-11-23T12:09:04;99315.00;;;6.90;76.17
75656;BME280;64252;51.094;13.714;2022-11-23T12:11:31;99315.81;;;6.91;75.31
75656;BME280;64252;51.094;13.714;2022-11-23T12:14:00;99319.06;;;6.96;75.57
75656;BME280;64252;51.094;13.714;2022-11-23T12:16:33;99307.88;;;7.03;75.79
75656;BME280;64252;51.094;13.714;2022-11-23T12:19:09;99316.34;;;7.11;76.09
75656;BME280;64252;51.094;13.714;2022-11-23T12:27:35;99305.59;;;7.23;75.62
75656;BME280;64252;51.094;13.714;2022-11-23T12:30:38;99303.59;;;7.24;74.88
75656;BME280;64252;51.094;13.714;2022-11-23T12:36:19;99308.69;;;7.07;75.85
75656;BME280;64252;51.094;13.714;2022-11-23T12:38:55;99298.63;;;6.99;76.52
75656;BME280;64252;51.094;13.714;2022-11-23T12:41:35;99297.38;;;6.93;76.27
75656;BME280;64252;51.094;13.714;2022-11-23T12:47:00;99300.91;;;6.80;77.59
75656;BME280;64252;51.094;13.714;2022-11-23T12:52:15;99301.59;;;6.63;78.00
75656;BME280;64252;51.094;13.714;2022-11-23T12:55:23;99301.94;;;6.54;78.43
75656;BME280;64252;51.094;13.714;2022-11-23T12:58:05;99299.88;;;6.51;78.61
75656;BME280;64252;51.094;13.714;2022-11-23T13:00:35;99309.09;;;6.48;79.20
75656;BME280;64252;51.094;13.714;2022-11-23T13:22:13;99319.81;;;6.35;79.01
75656;BME280;64252;51.094;13.714;2022-11-23T13:32:57;99320.72;;;6.06;79.70
75656;BME280;64252;51.094;13.714;2022-11-23T13:40:33;99338.56;;;5.91;80.96
75656;BME280;64252;51.094;13.714;2022-11-23T13:43:17;99322.97;;;5.93;80.32
75656;BME280;64252;51.094;13.714;2022-11-23T13:46:09;99327.81;;;5.96;81.26
75656;BME280;64252;51.094;13.714;2022-11-23T13:48:30;99317.38;;;5.93;80.88
75656;BME280;64252;51.094;13.714;2022-11-23T13:51:09;99324.94;;;5.89;81.66
75656;BME280;64252;51.094;13.714;2022-11-23T13:53:41;99323.66;;;5.83;81.54
75656;BME280;64252;51.094;13.714;2022-11-23T13:58:56;99324.25;;;5.66;81.60
75656;BME280;64252;51.094;13.714;2022-11-23T14:09:58;99330.09;;;5.24;83.90
75656;BME280;64252;51.094;13.714;2022-11-23T14:15:07;99321.97;;;5.12;84.53
75656;BME280;64252;51.094;13.714;2022-11-23T14:20:41;99332.13;;;4.97;85.01
75656;BME280;64252;51.094;13.714;2022-11-23T14:23:20;99333.63;;;4.91;84.40
75656;BME280;64252;51.094;13.714;2022-11-23T14:33:52;99350.19;;;4.77;85.92
75656;BME280;64252;51.094;13.714;2022-11-23T14:39:17;99341.19;;;4.61;85.71
75656;BME280;64252;51.094;13.714;2022-11-23T14:41:54;99342.63;;;4.51;86.52
75656;BME280;64252;51.094;13.714;2022-11-23T14:44:23;99338.47;;;4.41;87.39